DFOO

Bobo Dioulasso Airport

Bobo Dioulasso, Burkina Faso
METAR DFOO 192000Z 18004KT CAVOK 28/23 Q1013
Observed Flight Rules
Jun-19 @ 20:00 UTC (21 minutes ago) Visual Flight Rules
Wind Visibility Clouds
180° at 4 knots 10,000+ meters
  • Clear skies
Temperatures Readings
Current 28°C / 82°F
Dewpoint 23°C / 73°F
Humidity 74%
Altimeter 29.91" Hg
Pressure 1013 hPa
Elevation 460
METAR DFOO 192000Z 18004KT CAVOK 28/23 Q1013
Observed Flight Rules
Jun-19 @ 20:00 UTC
(21 minutes ago)
VFR
Wind Visibility
180° at 4 knots 10,000+ meters
Clouds
  • Clear skies
Temperature Dewpoint
28°C / 82°F 23°C / 73°F
Humidity Altimeter Pressure
74% 29.91" Hg 1013 hPa